Data for 08/05/2008

Time Sea-Level Adjusted Pressure Absolute Pressure Temperature Relative Humidity Dew Point   
(mb) (inHg) (mb) (inHg) (C) (F) (%) (C) (F)
00:05 1022 30.18 851 25.13 18.5 65.4 50 8.2 46.7
00:10 1022 30.18 851 25.13 18.5 65.3 51 8.1 46.7
00:15 1022 30.18 852 25.16 18.5 65.2 51 8.2 46.8
00:20 1022 30.18 852 25.16 18.4 65.1 51 8.2 46.8
00:25 1022 30.18 852 25.16 18.3 65 52 8.4 47.2
00:30 1022 30.18 852 25.16 18.2 64.7 52 8.4 47.1
00:35 1022 30.18 852 25.16 18.1 64.5 53 8.5 47.3
00:40 1022 30.18 852 25.16 18 64.3 53 8.4 47.2
00:45 1022 30.18 852 25.16 17.9 64.2 54 8.5 47.3
00:50 1022 30.18 852 25.16 17.9 64.2 54 8.4 47.2
00:55 1022 30.18 852 25.16 17.9 64.3 54 8.6 47.5
01:00 1022 30.18 852 25.16 17.8 64.1 54 8.5 47.3
01:05 1022 30.18 851 25.13 17.7 63.9 55 8.6 47.5
01:10 1022 30.18 852 25.16 17.6 63.8 55 8.7 47.6
01:15 1022 30.18 852 25.16 17.6 63.6 56 8.7 47.6
01:20 1022 30.18 852 25.16 17.6 63.6 55 8.6 47.5
01:25 1022 30.18 852 25.16 17.6 63.7 55 8.6 47.5
01:30 1022 30.18 852 25.16 17.6 63.7 56 8.7 47.6
01:35 1022 30.18 852 25.16 17.5 63.6 56 8.7 47.6
01:40 1022 30.18 851 25.13 17.4 63.3 56 8.7 47.7
01:45 1022 30.18 851 25.13 17.4 63.2 56 8.6 47.5
01:50 1022 30.18 851 25.13 17.4 63.3 56 8.7 47.6
01:55 1022 30.18 851 25.13 17.4 63.2 56 8.6 47.4
02:00 1022 30.18 851 25.13 17.3 63.1 56 8.5 47.3
02:05 1022 30.18 851 25.13 17.3 63.2 56 8.6 47.5
02:10 1022 30.18 851 25.13 17.3 63.1 56 8.5 47.3
02:15 1022 30.18 851 25.13 17.2 62.9 56 8.5 47.3
02:20 1022 30.18 851 25.13 17.2 62.9 56 8.4 47.2
02:25 1022 30.18 851 25.13 17.1 62.9 56 8.5 47.2
02:30 1022 30.18 851 25.13 17.1 62.7 57 8.5 47.2
02:35 1022 30.18 851 25.13 17 62.7 57 8.6 47.5
02:40 1022 30.18 851 25.13 16.9 62.5 57 8.4 47.2
02:45 1022 30.18 851 25.13 16.9 62.4 57 8.4 47.1
02:50 1022 30.18 851 25.13 16.9 62.5 57 8.4 47.2
02:55 1022 30.18 851 25.13 16.8 62.3 57 8.5 47.3
03:00 1022 30.18 851 25.13 16.7 62.1 58 8.5 47.4
03:05 1022 30.18 851 25.13 16.7 62 58 8.4 47.1
03:10 1022 30.18 851 25.13 16.7 62.1 58 8.4 47.1
03:15 1022 30.18 852 25.16 16.6 62 57 8.3 46.9
03:20 1022 30.18 852 25.16 16.7 62 58 8.4 47.1
03:25 1022 30.18 852 25.16 16.6 61.8 58 8.4 47.1
03:30 1022 30.18 852 25.16 16.5 61.8 58 8.3 46.9
03:35 1022 30.18 852 25.16 16.6 61.8 58 8.3 47
03:40 1022 30.18 852 25.16 16.6 61.8 58 8.4 47.1
03:45 1022 30.18 852 25.16 16.4 61.6 58 8.2 46.7
03:50 1022 30.18 852 25.16 16.4 61.6 58 8.3 46.9
03:55 1022 30.18 852 25.16 16.4 61.4 59 8.3 47
04:00 1022 30.18 852 25.16 16.3 61.3 59 8.3 47
04:05 1022 30.18 852 25.16 16.2 61.1 59 8.3 46.9
04:10 1022 30.18 852 25.16 16.1 61.1 59 8.3 47
04:15 1022 30.18 852 25.16 16 60.8 60 8.2 46.8
04:20 1023 30.21 852 25.16 16 60.7 60 8.3 46.9
04:25 1023 30.21 852 25.16 15.9 60.7 60 8.3 46.9
04:30 1023 30.21 852 25.16 15.9 60.6 60 8.1 46.7
04:35 1023 30.21 852 25.16 15.9 60.7 60 8.1 46.7
04:40 1023 30.21 852 25.16 15.9 60.6 60 8.2 46.8
04:45 1023 30.21 852 25.16 15.8 60.5 60 8.2 46.7
04:50 1023 30.21 852 25.16 15.8 60.5 60 8.1 46.6
04:55 1023 30.21 852 25.16 15.8 60.5 59 8 46.3
05:00 1023 30.21 852 25.16 15.9 60.6 60 8.1 46.6
05:05 1022 30.18 852 25.16 15.8 60.5 60 8.2 46.7
05:10 1022 30.18 852 25.16 15.7 60.2 61 8.2 46.7
05:15 1023 30.21 852 25.16 15.6 60 61 8.2 46.8
05:20 1023 30.21 852 25.16 15.5 60 61 8.2 46.7
05:25 1022 30.18 852 25.16 15.5 60 61 8.2 46.7
05:30 1022 30.18 852 25.16 15.5 59.9 61 8.2 46.7
05:35 1022 30.18 852 25.16 15.5 59.9 62 8.2 46.8
05:40 1022 30.18 852 25.16 15.4 59.8 62 8.2 46.8
05:45 1022 30.18 852 25.16 15.4 59.7 62 8.2 46.8
05:50 1022 30.18 852 25.16 15.4 59.8 62 8.2 46.7
05:55 1022 30.18 852 25.16 15.4 59.7 61 8.1 46.6
06:00 1023 30.21 852 25.16 15.5 59.8 61 8 46.3
06:05 1023 30.21 852 25.16 15.6 60 61 8.1 46.6
06:10 1023 30.21 852 25.16 15.5 59.9 61 8 46.4
06:15 1023 30.21 852 25.16 15.5 59.9 61 8.1 46.6
06:20 1023 30.21 852 25.16 15.4 59.6 62 8.2 46.7
06:25 1023 30.21 852 25.16 15.2 59.4 62 8.1 46.6
06:30 1023 30.21 852 25.16 15.1 59.2 62 8 46.4
06:35 1023 30.21 852 25.16 15.2 59.3 62 8.1 46.5
06:40 1023 30.21 852 25.16 15.2 59.3 62 8.1 46.5
06:45 1023 30.21 852 25.16 15.3 59.5 62 8.1 46.6
06:50 1023 30.21 852 25.16 15.2 59.4 62 8.2 46.7
06:55 1023 30.21 852 25.16 15.1 59.3 63 8.1 46.7
07:00 1023 30.21 852 25.16 15.2 59.3 63 8.2 46.7
07:05 1023 30.21 852 25.16 15.3 59.5 62 8.2 46.7
07:10 1023 30.21 852 25.16 15.4 59.7 62 8.2 46.8
07:15 1023 30.21 852 25.16 15.5 59.8 62 8.3 47
07:20 1023 30.21 852 25.16 15.5 59.8 62 8.4 47.1
07:25 1023 30.21 852 25.16 15.8 60.4 62 8.5 47.4
07:30 1023 30.21 852 25.16 16 60.8 61 8.6 47.4
07:35 1023 30.21 852 25.16 16.2 61.1 62 9 48.1
07:40 1023 30.21 852 25.16 15.9 60.7 62 8.8 47.8
07:45 1023 30.21 852 25.16 15.9 60.5 62 8.6 47.5
07:50 1023 30.21 852 25.16 15.9 60.6 61 8.4 47.2
07:55 1023 30.21 852 25.16 16.2 61.2 59 8.3 46.9
08:00 1023 30.21 852 25.16 16.6 61.9 59 8.6 47.4
08:05 1023 30.21 852 25.16 16.9 62.3 58 8.6 47.5
08:10 1023 30.21 852 25.16 17.3 63.1 58 9 48.1
08:15 1023 30.21 852 25.16 17.7 63.8 56 9 48.2
08:20 1023 30.21 852 25.16 17.9 64.2 55 8.9 48.1
08:25 1023 30.21 853 25.19 18.1 64.7 54 8.8 47.8
08:30 1023 30.21 853 25.19 18.1 64.5 54 8.9 47.9
08:35 1023 30.21 853 25.19 18.5 65.3 53 8.8 47.9
08:40 1023 30.21 853 25.19 18.9 66 50 8.4 47.2
08:45 1023 30.21 853 25.19 19.6 67.2 49 8.8 47.8
08:50 1023 30.21 853 25.19 19.1 66.3 51 8.8 47.8
08:55 1023 30.21 853 25.19 19.3 66.7 51 8.9 48
09:00 1023 30.21 853 25.19 19 66.3 49 8.2 46.8
09:05 1023 30.21 853 25.19 19.7 67.4 49 8.8 47.8
09:10 1023 30.21 853 25.19 19.4 66.9 49 8.5 47.2
09:15 1023 30.21 853 25.19 19.4 66.9 50 8.7 47.7
09:20 1023 30.21 853 25.19 19.2 66.5 50 8.7 47.6
09:25 1023 30.21 853 25.19 19.4 66.9 50 8.8 47.9
09:30 1023 30.21 853 25.19 20 68 48 8.9 48
09:35 1023 30.21 853 25.19 20.3 68.6 46 8.5 47.2
09:40 1023 30.21 853 25.19 20.4 68.7 46 8.5 47.3
09:45 1023 30.21 853 25.19 20.8 69.4 45 8.6 47.4
09:50 1023 30.21 852 25.16 20.3 68.6 46 8.6 47.5
09:55 1023 30.21 852 25.16 20 68 45 7.9 46.3
10:00 1023 30.21 852 25.16 21.2 70.1 43 8.2 46.8
10:05 1023 30.21 852 25.16 20.6 69 44 8.2 46.8
10:10 1023 30.21 852 25.16 20.7 69.3 41 7.3 45.1
10:15 1023 30.21 852 25.16 21 69.9 43 8 46.5
10:20 1023 30.21 852 25.16 21.3 70.4 42 8.1 46.6
10:25 1023 30.21 852 25.16 21.5 70.7 43 8.4 47.2
10:30 1023 30.21 852 25.16 21.6 70.9 41 7.8 46.1
10:35 1023 30.21 852 25.16 22.2 71.9 41 8.4 47
10:40 1023 30.21 852 25.16 22.3 72.2 40 8.2 46.8
10:45 1023 30.21 852 25.16 23 73.3 39 8.4 47.1
10:50 1023 30.21 852 25.16 22.9 73.3 40 8.7 47.6
10:55 1023 30.21 852 25.16 23 73.3 37 7.8 46.1
11:00 1023 30.21 852 25.16 23.2 73.7 38 8.4 47.2
11:05 1023 30.21 852 25.16 22.7 72.8 37 7.5 45.4
11:10 1023 30.21 852 25.16 23.4 74.1 37 8 46.5
11:15 1023 30.21 852 25.16 23.4 74 38 8.3 46.9
11:20 1023 30.21 852 25.16 23.5 74.2 36 7.9 46.1
11:25 1023 30.21 852 25.16 24.2 75.5 32 6.7 44.1
11:30 1023 30.21 852 25.16 24.6 76.2 32 6.8 44.3
11:35 1023 30.21 852 25.16 24.6 76.2 31 6.7 44.1
11:40 1023 30.21 852 25.16 23.6 74.4 36 7.7 45.8
11:45 1023 30.21 852 25.16 23.7 74.6 33 6.5 43.7
11:50 1023 30.21 852 25.16 24.3 75.8 33 7.3 45.1
11:55 1023 30.21 852 25.16 24.1 75.4 34 7.3 45.1
12:00 1023 30.21 852 25.16 24.5 76.1 35 8.2 46.7
12:05 1023 30.21 852 25.16 24.6 76.2 33 7.2 45
12:10 1023 30.21 852 25.16 24.9 76.8 33 7.6 45.8
12:15 1023 30.21 852 25.16 25.4 77.6 31 7.2 44.9
12:20 1023 30.21 852 25.16 24.6 76.3 31 6.4 43.5
12:25 1023 30.21 852 25.16 24.4 75.9 30 5.9 42.6
12:30 1023 30.21 852 25.16 25.9 78.6 29 6.8 44.3
12:35 1023 30.21 852 25.16 25.1 77.3 32 7.4 45.4
12:40 1023 30.21 852 25.16 25.5 77.9 28 6.1 43
12:45 1023 30.21 852 25.16 26.2 79.2 27 6.1 43
12:50 1023 30.21 852 25.16 26.3 79.3 26 5.8 42.4
12:55 1023 30.21 852 25.16 26.5 79.8 28 6.8 44.2
13:00 1023 30.21 852 25.16 27 80.7 25 5.3 41.6
13:05 1023 30.21 852 25.16 27.4 81.4 24 5.2 41.3
13:10 1023 30.21 852 25.16 27.6 81.7 24 5.5 41.8
13:15 1023 30.21 852 25.16 27.5 81.5 22 4.4 40
13:20 1022 30.18 852 25.16 27.9 82.1 24 5.4 41.8
13:25 1022 30.18 852 25.16 28 82.5 24 6.1 42.9
13:30 1022 30.18 852 25.16 28.4 83.1 23 5.8 42.5
13:35 1022 30.18 852 25.16 28.4 83.1 23 5.5 41.9
13:40 1022 30.18 852 25.16 28.6 83.5 22 5.3 41.6
13:45 1022 30.18 852 25.16 28.6 83.5 18 2.4 36.4
13:50 1022 30.18 852 25.16 28.7 83.7 22 4.9 40.8
13:55 1022 30.18 852 25.16 28.7 83.6 25 6.8 44.3
14:00 1022 30.18 852 25.16 27.6 81.7 25 6.4 43.4
14:05 1022 30.18 851 25.13 27.1 80.8 27 6.9 44.5
14:10 1022 30.18 851 25.13 26.8 80.2 25 5.5 41.8
14:15 1022 30.18 851 25.13 26.9 80.4 23 4.4 39.8
14:20 1022 30.18 851 25.13 28.6 83.5 21 4.4 40
14:25 1022 30.18 851 25.13 28.4 83.2 20 3.7 38.7
14:30 1022 30.18 851 25.13 28.4 83.1 15 -0.9 30.5
14:35 1022 30.18 851 25.13 29.1 84.3 13 -2 28.4
14:40 1022 30.18 851 25.13 29.6 85.2 13 -1.3 29.7
14:45 1022 30.18 851 25.13 29.6 85.3 13 -1.2 29.9
14:50 1022 30.18 851 25.13 29.1 84.3 14 -0.9 30.3
14:55 1022 30.18 851 25.13 29.3 84.7 14 -0.6 30.9
15:00 1022 30.18 851 25.13 29.8 85.6 15 0.7 33.3
15:05 1022 30.18 851 25.13 29.8 85.6 14 -0.5 31.2
15:10 1022 30.18 851 25.13 29.8 85.6 14 0.1 32.1
15:15 1022 30.18 851 25.13 29.7 85.5 15 0.9 33.7
15:20 1022 30.18 851 25.13 29.3 84.8 15 0.1 32.1
15:25 1022 30.18 851 25.13 29.5 85.2 15 0.6 33
15:30 1022 30.18 851 25.13 29.3 84.8 15 0 32.1
15:35 1022 30.18 851 25.13 29.5 85.2 16 1.2 34.2
15:40 1022 30.18 851 25.13 29.4 84.9 15 0.7 33.3
15:45 1022 30.18 851 25.13 29.8 85.7 17 2.4 36.3
15:50 1022 30.18 851 25.13 29 84.1 16 1 33.9
15:55 1022 30.18 851 25.13 28.4 83.1 17 1.4 34.5
16:00 1022 30.18 851 25.13 28.6 83.5 16 0.3 32.5
16:05 1021 30.15 851 25.13 29.1 84.3 15 0.3 32.6
16:10 1021 30.15 851 25.13 29.2 84.5 15 0 32
16:15 1021 30.15 851 25.13 28.9 84.1 15 -0.1 31.7
16:20 1021 30.15 851 25.13 29.2 84.5 15 0.4 32.8
16:25 1021 30.15 851 25.13 29 84.2 15 0.4 32.8
16:30 1021 30.15 851 25.13 29 84.1 15 -0.2 31.6
16:35 1021 30.15 850 25.1 28.7 83.7 15 0 32.1
16:40 1021 30.15 850 25.1 28.9 84.1 15 0.3 32.5
16:45 1021 30.15 850 25.1 29.4 84.9 14 -0.3 31.5
16:50 1021 30.15 850 25.1 29.5 85 15 0 32
16:55 1021 30.15 850 25.1 29.5 85 14 -0.3 31.5
17:00 1021 30.15 850 25.1 29.4 84.9 15 0.2 32.3
17:05 1021 30.15 850 25.1 30 86 15 0.9 33.6
17:10 1021 30.15 850 25.1 29.8 85.6 15 0.7 33.2
17:15 1021 30.15 850 25.1 30.3 86.5 14 -0.1 31.8
17:20 1021 30.15 850 25.1 30.7 87.3 14 0.4 32.8
17:25 1021 30.15 850 25.1 30.9 87.6 14 0.5 33
17:30 1021 30.15 850 25.1 31.2 88.2 14 1.1 33.9
17:35 1021 30.15 850 25.1 30.4 86.8 14 0.3 32.6
17:40 1021 30.15 850 25.1 30.6 87.1 14 0.5 32.8
17:45 1021 30.15 850 25.1 30.3 86.5 14 0.3 32.6
17:50 1021 30.15 850 25.1 30.7 87.2 14 0.5 32.9
17:55 1021 30.15 850 25.1 30.6 87 14 0.6 33
18:00 1021 30.15 850 25.1 29.9 85.9 14 0.3 32.6
18:05 1021 30.15 850 25.1 29.8 85.7 15 0.6 33.1
18:10 1021 30.15 850 25.1 29.6 85.2 15 0.7 33.2
18:15 1021 30.15 850 25.1 29.3 84.7 15 0.3 32.5
18:20 1021 30.15 850 25.1 29.9 85.9 14 0.3 32.6
18:25 1021 30.15 850 25.1 30.5 86.9 14 0.2 32.4
18:30 1021 30.15 850 25.1 30.7 87.3 14 0.4 32.8
18:35 1021 30.15 850 25.1 30.6 87 15 1.1 33.9
18:40 1021 30.15 850 25.1 29.6 85.3 15 0.2 32.3
18:45 1021 30.15 850 25.1 29.5 85 14 -0 32
18:50 1021 30.15 850 25.1 29.2 84.6 15 0.6 33.1
18:55 1021 30.15 850 25.1 29.1 84.4 15 0.2 32.4
19:00 1021 30.15 850 25.1 28.7 83.7 16 0.3 32.6
19:05 1021 30.15 850 25.1 28.8 83.8 16 0.7 33.3
19:10 1021 30.15 850 25.1 28.6 83.5 16 0.7 33.3
19:15 1021 30.15 850 25.1 28.4 83 15 -0.2 31.6
19:20 1021 30.15 850 25.1 28.3 82.9 15 -0.6 31
19:25 1021 30.15 850 25.1 28.3 82.9 17 1.3 34.4
19:30 1021 30.15 850 25.1 28.2 82.8 18 2 35.6
19:35 1021 30.15 850 25.1 28.1 82.5 18 1.6 34.8
19:40 1021 30.15 850 25.1 28 82.4 17 1.3 34.3
19:45 1021 30.15 850 25.1 28 82.4 17 1 33.8
19:50 1021 30.15 850 25.1 27.9 82.3 17 0.9 33.7
19:55 1021 30.15 850 25.1 27.9 82.2 17 1 33.8
20:00 1021 30.15 850 25.1 27.8 82.1 17 0.4 32.8
20:05 1021 30.15 850 25.1 27.8 82 16 -0.2 31.7
20:10 1021 30.15 850 25.1 27.8 82 16 0.2 32.4
20:15 1021 30.15 850 25.1 27.7 81.8 16 0.2 32.4
20:20 1021 30.15 850 25.1 27.6 81.7 17 0.8 33.4
20:25 1021 30.15 850 25.1 27.5 81.4 18 1 33.9
20:30 1021 30.15 850 25.1 27.3 81.1 21 3 37.4
20:35 1021 30.15 850 25.1 27 80.6 25 5.5 42
20:40 1021 30.15 850 25.1 26.1 79 31 8.1 46.5
20:45 1021 30.15 850 25.1 25.2 77.4 31 7 44.6
20:50 1021 30.15 850 25.1 24.6 76.2 33 7.4 45.4
20:55 1021 30.15 850 25.1 24.1 75.4 33 7 44.7
21:00 1021 30.15 850 25.1 23.1 73.7 43 10.2 50.4
21:05 1021 30.15 851 25.13 21.9 71.4 43 8.8 47.9
21:10 1021 30.15 851 25.13 21.6 71 40 7.6 45.6
21:15 1022 30.18 851 25.13 22 71.5 34 5.5 41.9
21:20 1022 30.18 851 25.13 22.1 71.8 30 4 39.2
21:25 1022 30.18 851 25.13 22.4 72.4 28 3.3 37.9
21:30 1022 30.18 851 25.13 22.6 72.7 30 4.2 39.6
21:35 1022 30.18 851 25.13 22.3 72.1 30 4 39.2
21:40 1022 30.18 851 25.13 22.8 73 26 2.5 36.4
21:45 1022 30.18 851 25.13 23.6 74.5 25 2.9 37.2
21:50 1022 30.18 851 25.13 23.7 74.6 25 2.9 37.2
21:55 1022 30.18 851 25.13 23.3 74 25 2.5 36.5
22:00 1022 30.18 851 25.13 22.7 72.9 30 4.6 40.4
22:05 1022 30.18 851 25.13 21.6 70.9 32 4.2 39.5
22:10 1022 30.18 851 25.13 21.1 70 30 3.1 37.6
22:15 1022 30.18 851 25.13 21.2 70.1 31 3.4 38.1
22:20 1022 30.18 851 25.13 20.9 69.7 31 3.5 38.3
22:25 1022 30.18 851 25.13 20.6 69 32 3.5 38.3
22:30 1022 30.18 851 25.13 20.4 68.7 32 3.5 38.2
22:35 1022 30.18 851 25.13 20.5 68.8 32 3.3 38
22:40 1022 30.18 851 25.13 20.7 69.2 30 2.8 37
22:45 1022 30.18 852 25.16 21.5 70.8 28 2.6 36.7
22:50 1022 30.18 852 25.16 22 71.6 27 2.4 36.3
22:55 1023 30.21 852 25.16 22.3 72.2 26 2.3 36.1
23:00 1023 30.21 852 25.16 22.7 72.9 26 2.4 36.3
23:05 1023 30.21 852 25.16 22.5 72.4 28 3.1 37.5
23:10 1023 30.21 852 25.16 22.3 72.1 28 3.2 37.8
23:15 1023 30.21 852 25.16 22.1 71.8 29 3.3 38
23:20 1023 30.21 852 25.16 22.2 71.9 29 3.6 38.4
23:25 1023 30.21 852 25.16 21.9 71.4 30 3.7 38.7
23:30 1023 30.21 852 25.16 21.9 71.3 30 3.8 38.9
23:35 1023 30.21 852 25.16 21.8 71.2 31 4 39.1
23:40 1023 30.21 852 25.16 21.6 70.9 31 4.1 39.5
23:45 1023 30.21 852 25.16 21.4 70.4 32 4.2 39.5
23:50 1023 30.21 852 25.16 21.2 70.1 33 4.4 39.9
23:55 1023 30.21 852 25.16 21 69.7 33 4.5 40
24:00 1023 30.21 852 25.16 20.9 69.7 33 4.3 39.8